Time;durP1;ratioP1;P1;durP2;ratioP2;P2;SDS_P1;SDS_P2;PMS_P1;PMS_P2;Temp;Humidity;BMP_temperature;BMP_pressure;BME280_temperature;BME280_humidity;BME280_pressure;Samples;Min_cycle;Max_cycle;Signal;HPM_P1;HPM_P2
2023/11/08 00:01:34;;;;;;;4.57;2.90;;;;;;;10.98;51.88;98761.16;6890934;28;20258;-88
2023/11/08 00:05:23;;;;;;;2.57;2.10;;;;;;;10.27;52.50;98708.03;6891642;28;20212;-87
2023/11/08 00:09:45;;;;;;;4.13;2.13;;;;;;;10.77;51.64;98688.53;6879495;28;20223;-87
2023/11/08 00:13:24;;;;;;;3.30;2.40;;;;;;;10.88;51.29;98699.53;6894181;28;20204;-87
2023/11/08 00:20:48;;;;;;;3.43;2.40;;;;;;;10.94;49.96;98698.69;6941185;28;20228;-88
2023/11/08 00:24:11;;;;;;;3.17;2.27;;;;;;;10.93;50.50;98699.72;6917667;28;20215;-88
2023/11/08 00:27:39;;;;;;;6.17;4.30;;;;;;;10.82;51.19;98723.81;6919757;28;20266;-89
2023/11/08 00:31:01;;;;;;;4.40;3.00;;;;;;;11.02;50.04;98678.75;6919495;28;20244;-88
2023/11/08 00:34:28;;;;;;;7.27;2.90;;;;;;;11.21;49.94;98721.06;6919944;28;20188;-88
2023/11/08 00:37:51;;;;;;;2.90;2.37;;;;;;;11.25;50.33;98754.66;6921278;28;20212;-88
2023/11/08 00:41:15;;;;;;;3.57;2.23;;;;;;;11.65;50.50;98804.88;6917624;28;20288;-88
2023/11/08 00:44:45;;;;;;;6.83;2.43;;;;;;;12.29;49.61;98867.84;6904543;28;20220;-89
2023/11/08 00:48:12;;;;;;;2.73;2.17;;;;;;;11.48;49.66;98753.19;6911174;28;20233;-88
2023/11/08 00:51:38;;;;;;;2.63;2.30;;;;;;;11.49;49.63;98722.44;6915297;28;20200;-88
2023/11/08 00:55:03;;;;;;;5.60;2.63;;;;;;;11.01;50.06;98731.03;6917779;28;20257;-88
2023/11/08 00:58:26;;;;;;;4.83;2.10;;;;;;;11.49;50.21;98780.97;6895079;28;20231;-88
2023/11/08 01:01:48;;;;;;;3.63;2.17;;;;;;;12.33;49.57;98863.69;6888933;28;20691;-87
2023/11/08 01:05:10;;;;;;;3.87;2.10;;;;;;;12.37;50.36;98886.50;6887905;28;20207;-87
2023/11/08 01:08:42;;;;;;;6.33;2.63;;;;;;;12.16;50.42;98820.06;6869168;28;20823;-87
2023/11/08 01:12:07;;;;;;;4.83;2.20;;;;;;;12.35;51.19;98839.94;6864352;28;20205;-87
2023/11/08 01:15:31;;;;;;;2.63;2.40;;;;;;;11.78;51.52;98745.41;6887978;28;20351;-86
2023/11/08 01:18:54;;;;;;;2.13;2.03;;;;;;;11.83;52.69;98840.13;6887925;28;20363;-86
2023/11/08 01:22:16;;;;;;;3.10;2.30;;;;;;;12.06;51.74;98806.19;6886675;28;20699;-86
2023/11/08 01:25:38;;;;;;;4.90;2.20;;;;;;;12.25;51.30;98823.34;6879989;28;20262;-86
2023/11/08 01:29:04;;;;;;;4.83;2.23;;;;;;;11.56;51.27;98715.13;6887998;28;20278;-86
2023/11/08 01:32:26;;;;;;;3.70;2.40;;;;;;;12.46;51.04;98829.25;6887987;28;20247;-86
2023/11/08 01:35:48;;;;;;;6.73;2.30;;;;;;;12.46;50.20;98821.16;6887820;28;20211;-86
2023/11/08 01:39:10;;;;;;;4.23;2.30;;;;;;;11.31;51.01;98707.94;6883458;28;20721;-86
2023/11/08 01:42:33;;;;;;;4.73;4.20;;;;;;;11.14;52.17;98729.16;6883961;28;20201;-86
2023/11/08 01:46:08;;;;;;;3.87;2.77;;;;;;;11.10;52.28;98727.91;6887483;28;20327;-86
2023/11/08 01:49:29;;;;;;;4.80;2.57;;;;;;;11.65;52.31;98803.00;6861424;28;20255;-86
2023/11/08 01:53:03;;;;;;;2.70;2.30;;;;;;;11.74;52.49;98852.22;6861218;28;20205;-85
2023/11/08 01:56:27;;;;;;;2.90;2.20;;;;;;;11.58;52.61;98817.53;6860335;28;20220;-85
2023/11/08 02:03:55;;;;;;;2.63;2.00;;;;;;;11.04;54.08;98825.88;6873872;28;20213;-85
2023/11/08 02:07:17;;;;;;;2.10;1.90;;;;;;;11.54;52.98;98840.59;6882212;28;20742;-84
2023/11/08 02:10:38;;;;;;;3.27;2.00;;;;;;;11.27;54.79;98852.47;6887470;28;20255;-84
2023/11/08 02:14:03;;;;;;;3.07;2.00;;;;;;;10.50;55.30;98757.00;6891902;28;20232;-85
2023/11/08 02:17:24;;;;;;;3.47;2.87;;;;;;;10.98;54.16;98750.38;6893295;28;20239;-85
2023/11/08 02:20:48;;;;;;;6.53;2.50;;;;;;;10.89;55.29;98837.91;6891428;28;20248;-85
2023/11/08 02:24:20;;;;;;;6.53;3.40;;;;;;;10.85;55.38;98804.28;6892332;28;20192;-85
2023/11/08 02:28:06;;;;;;;4.57;3.10;;;;;;;11.62;53.08;98792.63;6868615;28;20320;-85
2023/11/08 02:31:30;;;;;;;2.20;2.10;;;;;;;11.24;53.93;98783.53;6873109;28;20199;-85
2023/11/08 02:35:27;;;;;;;1.90;1.80;;;;;;;11.19;54.31;98782.50;6884733;28;20254;-86
2023/11/08 02:38:49;;;;;;;3.77;1.90;;;;;;;11.72;54.16;98846.19;6865631;28;20232;-84
2023/11/08 02:42:32;;;;;;;2.67;2.07;;;;;;;11.03;54.24;98737.09;6874982;28;20203;-84
2023/11/08 02:45:59;;;;;;;4.37;2.10;;;;;;;11.48;53.96;98792.81;6888873;28;20671;-84
2023/11/08 02:49:30;;;;;;;4.67;2.17;;;;;;;11.59;53.27;98778.72;6892041;28;20220;-85
2023/11/08 02:52:56;;;;;;;2.60;2.40;;;;;;;11.59;53.62;98811.13;6892716;28;20232;-85
2023/11/08 02:56:24;;;;;;;3.73;2.20;;;;;;;11.80;54.35;98856.78;6892060;28;20268;-85
2023/11/08 02:59:50;;;;;;;5.20;2.90;;;;;;;11.77;53.40;98813.97;6888282;28;20254;-85
2023/11/08 03:03:23;;;;;;;2.07;1.87;;;;;;;11.37;54.42;98794.31;6865205;28;20598;-86
2023/11/08 03:06:56;;;;;;;1.93;1.83;;;;;;;11.90;54.12;98849.03;6865531;28;20645;-85
2023/11/08 03:10:25;;;;;;;2.27;2.07;;;;;;;11.23;54.78;98764.84;6883197;28;20247;-85
2023/11/08 03:13:50;;;;;;;1.80;1.70;;;;;;;11.81;54.47;98845.75;6891628;28;20199;-84
2023/11/08 03:17:18;;;;;;;3.03;1.90;;;;;;;10.74;55.15;98707.84;6890007;28;20201;-85
2023/11/08 03:20:43;;;;;;;3.60;2.10;;;;;;;11.98;54.30;98849.66;6890973;28;20231;-85
2023/11/08 03:24:10;;;;;;;3.77;2.20;;;;;;;11.76;54.47;98840.16;6891087;28;20207;-85
2023/11/08 03:27:41;;;;;;;2.50;1.80;;;;;;;11.18;54.04;98732.28;6891883;28;20212;-85
2023/11/08 03:31:05;;;;;;;2.90;2.23;;;;;;;11.24;54.18;98737.66;6891282;28;20204;-85
2023/11/08 03:34:41;;;;;;;4.13;2.37;;;;;;;11.36;53.67;98743.22;6889045;28;20239;-85
2023/11/08 03:38:10;;;;;;;3.73;2.20;;;;;;;11.52;53.05;98729.28;6891200;28;20232;-85
2023/11/08 03:53:44;;;;;;;3.77;2.20;;;;;;;11.99;52.50;98820.75;6877674;28;20201;-85
2023/11/08 04:01:10;;;;;;;2.23;2.03;;;;;;;12.14;52.32;98829.41;6883558;28;20698;-85
2023/11/08 04:05:02;;;;;;;7.43;3.03;;;;;;;11.41;52.54;98719.97;6885974;28;20208;-85
2023/11/08 04:35:01;;;;;;;4.93;3.73;;;;;;;11.19;52.85;98750.09;6599734;29;20243;-84
2023/11/08 04:38:34;;;;;;;4.40;2.60;;;;;;;11.55;52.96;98807.13;6577160;30;20233;-85
2023/11/08 04:42:02;;;;;;;8.13;4.33;;;;;;;11.86;52.23;98791.09;6592739;30;20232;-85
2023/11/08 04:45:27;;;;;;;4.03;2.17;;;;;;;11.72;51.60;98747.09;6615511;29;20297;-85
2023/11/08 04:49:01;;;;;;;5.27;3.10;;;;;;;11.73;51.05;98707.41;6626532;29;20357;-85
2023/11/08 04:52:27;;;;;;;2.50;1.90;;;;;;;11.83;51.99;98822.06;6649838;29;20221;-85
2023/11/08 04:55:52;;;;;;;5.27;2.17;;;;;;;12.33;51.13;98812.31;6677102;29;20689;-84
2023/11/08 04:59:14;;;;;;;6.87;2.30;;;;;;;12.65;51.64;98895.97;6678915;29;20237;-84
2023/11/08 05:02:40;;;;;;;2.20;1.97;;;;;;;12.20;51.96;98847.47;6676878;29;20225;-86
2023/11/08 05:06:01;;;;;;;3.07;2.17;;;;;;;12.56;51.51;98891.84;6676602;29;20201;-85
2023/11/08 05:09:24;;;;;;;5.00;1.93;;;;;;;12.18;51.24;98811.75;6671989;29;20328;-84
2023/11/08 05:12:48;;;;;;;4.20;2.10;;;;;;;12.60;51.32;98894.94;6730177;29;20249;-85
2023/11/08 05:16:12;;;;;;;2.23;2.00;;;;;;;12.06;51.86;98835.06;6804625;29;20258;-85
2023/11/08 05:19:33;;;;;;;4.50;2.03;;;;;;;11.95;52.97;98877.09;6805160;29;20257;-85
2023/11/08 05:22:55;;;;;;;3.00;1.90;;;;;;;12.54;51.63;98901.22;6857338;28;20217;-85
2023/11/08 05:26:19;;;;;;;2.60;1.83;;;;;;;12.28;51.37;98860.78;6850013;28;20204;-85
2023/11/08 05:29:40;;;;;;;2.90;2.20;;;;;;;12.96;50.49;98909.56;6861077;28;20225;-85
2023/11/08 05:33:02;;;;;;;3.47;2.20;;;;;;;12.84;50.59;98900.44;6861780;28;20232;-86
2023/11/08 05:36:23;;;;;;;4.03;2.27;;;;;;;12.71;50.88;98883.44;6862307;28;20243;-85
2023/11/08 05:39:46;;;;;;;3.27;1.90;;;;;;;12.74;50.83;98907.38;6862192;28;20720;-85
2023/11/08 05:43:10;;;;;;;4.80;2.50;;;;;;;13.12;49.70;98902.78;6860294;28;20652;-85
2023/11/08 05:46:37;;;;;;;6.23;2.40;;;;;;;12.40;50.85;98859.06;6861115;28;20208;-86
2023/11/08 05:50:00;;;;;;;2.20;2.00;;;;;;;11.82;50.69;98773.66;6866410;28;20232;-85
2023/11/08 05:53:22;;;;;;;4.80;2.13;;;;;;;12.30;49.75;98769.47;6865255;28;20285;-85
2023/11/08 05:56:52;;;;;;;2.63;2.20;;;;;;;12.49;49.51;98785.56;6866302;28;20201;-85
2023/11/08 06:00:20;;;;;;;5.40;2.20;;;;;;;12.45;50.68;98853.84;6863997;28;20912;-85
2023/11/08 06:03:41;;;;;;;4.43;2.20;;;;;;;11.92;53.08;98906.44;6864918;28;20201;-85
2023/11/08 06:07:03;;;;;;;2.70;1.97;;;;;;;12.47;51.33;98913.94;6866067;28;20216;-86
2023/11/08 06:10:24;;;;;;;5.50;2.30;;;;;;;12.71;51.01;98916.75;6854043;28;20253;-86
2023/11/08 06:13:46;;;;;;;2.27;2.00;;;;;;;12.19;52.33;98908.00;6868769;28;20251;-86
2023/11/08 06:21:36;;;;;;;2.50;2.30;;;;;;;11.85;53.42;98897.47;6843963;28;20316;-84
2023/11/08 06:24:57;;;;;;;7.80;4.20;;;;;;;11.75;53.30;98870.09;6840783;28;20221;-85
2023/11/08 06:36:28;;;;;;;4.87;2.20;;;;;;;11.90;53.04;98908.47;6763338;29;20223;-86
2023/11/08 06:39:50;;;;;;;5.07;2.47;;;;;;;11.44;52.56;98813.19;6768019;29;20825;-86
2023/11/08 06:43:14;;;;;;;2.57;1.90;;;;;;;11.76;51.92;98813.13;6759576;29;20295;-87
2023/11/08 06:46:36;;;;;;;4.80;2.40;;;;;;;12.41;51.58;98926.44;6758781;29;20222;-86
2023/11/08 06:49:58;;;;;;;2.30;1.90;;;;;;;12.15;51.63;98866.25;6757885;29;20374;-86
2023/11/08 07:25:15;;;;;;;5.03;2.23;;;;;;;12.40;52.95;98976.13;6865923;28;20602;-86
2023/11/08 07:28:36;;;;;;;2.27;2.07;;;;;;;12.62;52.13;98982.13;6862039;28;20229;-87
2023/11/08 07:31:58;;;;;;;2.80;2.37;;;;;;;12.63;51.24;98951.31;6852709;28;20205;-85
2023/11/08 07:35:20;;;;;;;4.87;2.30;;;;;;;12.74;51.75;98965.00;6865829;28;20216;-86
2023/11/08 07:38:41;;;;;;;4.27;2.30;;;;;;;12.90;51.24;98977.19;6860728;28;20281;-85
2023/11/08 07:42:05;;;;;;;3.63;2.57;;;;;;;13.19;51.07;98990.19;6859487;28;20296;-86
2023/11/08 07:45:26;;;;;;;5.07;2.40;;;;;;;13.19;51.02;98982.91;6859947;28;20303;-87
2023/11/08 07:48:48;;;;;;;3.87;2.20;;;;;;;13.32;50.88;98985.53;6867926;28;20272;-85
2023/11/08 07:52:10;;;;;;;2.43;2.00;;;;;;;13.20;50.72;98995.41;6913341;28;20298;-86
2023/11/08 07:55:32;;;;;;;2.37;2.17;;;;;;;13.29;50.14;98995.97;6937730;28;20217;-86
2023/11/08 07:58:54;;;;;;;2.27;1.73;;;;;;;13.46;49.79;98999.81;6943425;28;20284;-86
2023/11/08 08:02:16;;;;;;;2.87;2.20;;;;;;;13.44;49.33;98978.38;6939771;28;20354;-86
2023/11/08 08:05:38;;;;;;;2.00;1.90;;;;;;;13.70;49.51;99001.75;6926450;28;20230;-86
2023/11/08 08:08:59;;;;;;;5.30;2.30;;;;;;;13.54;49.27;98997.69;6932149;28;20304;-86
2023/11/08 08:12:21;;;;;;;4.43;2.63;;;;;;;14.41;47.92;98997.56;6938529;28;20199;-87
2023/11/08 08:15:44;;;;;;;4.63;2.30;;;;;;;17.91;40.05;98992.47;6943468;28;20813;-86
2023/11/08 08:19:05;;;;;;;2.40;2.20;;;;;;;19.54;36.41;98977.84;6939864;28;20325;-86
2023/11/08 08:22:27;;;;;;;3.03;2.37;;;;;;;20.04;34.69;98992.00;6942210;28;20225;-85
2023/11/08 08:25:48;;;;;;;3.80;2.33;;;;;;;20.21;34.45;98990.81;6936540;28;20302;-86
2023/11/08 08:29:10;;;;;;;2.60;1.90;;;;;;;21.22;31.65;98929.16;6940668;28;20262;-86
2023/11/08 08:32:34;;;;;;;3.97;1.67;;;;;;;21.43;32.32;98962.66;6941897;28;20210;-86
2023/11/08 08:35:56;;;;;;;2.47;1.63;;;;;;;20.77;33.40;98981.88;6940858;28;20769;-86
2023/11/08 08:39:20;;;;;;;2.07;1.70;;;;;;;21.02;31.88;98915.38;6941631;28;20230;-86
2023/11/08 08:42:42;;;;;;;2.37;2.10;;;;;;;21.86;31.96;98964.97;6937442;28;20241;-86
2023/11/08 08:46:05;;;;;;;1.73;1.57;;;;;;;18.84;35.27;98917.72;6940740;28;20219;-86
2023/11/08 08:49:27;;;;;;;1.93;1.83;;;;;;;17.64;39.15;98991.47;6944495;28;20259;-87
2023/11/08 08:52:49;;;;;;;2.90;2.30;;;;;;;17.86;38.80;98992.44;6932904;28;20253;-86
2023/11/08 08:56:11;;;;;;;2.33;1.90;;;;;;;17.14;40.10;98982.31;6969022;28;20248;-86
2023/11/08 08:59:33;;;;;;;2.40;1.90;;;;;;;15.95;42.91;98984.81;6969429;28;20227;-86
2023/11/08 09:02:55;;;;;;;2.60;2.00;;;;;;;16.16;42.05;98909.97;6963873;28;20224;-86
2023/11/08 09:06:20;;;;;;;4.33;2.07;;;;;;;15.42;42.63;98883.47;6968759;28;20236;-86
2023/11/08 09:09:41;;;;;;;2.27;1.83;;;;;;;16.71;41.40;98958.31;6968984;28;20231;-87
2023/11/08 09:13:03;;;;;;;1.83;1.73;;;;;;;16.88;41.13;98988.31;6969667;28;20250;-86
2023/11/08 09:16:24;;;;;;;2.70;1.80;;;;;;;16.79;41.61;98951.63;6954985;28;20309;-87
2023/11/08 09:19:46;;;;;;;4.50;1.80;;;;;;;15.82;43.33;98927.09;6922739;28;20296;-85
2023/11/08 09:23:08;;;;;;;2.77;1.70;;;;;;;16.96;41.86;98983.31;6913079;28;20771;-87
2023/11/08 09:26:30;;;;;;;4.63;1.90;;;;;;;16.97;42.05;98990.44;6914543;28;20832;-87
2023/11/08 09:29:51;;;;;;;3.23;2.30;;;;;;;17.00;41.19;98930.03;6914714;28;20314;-87
2023/11/08 09:33:13;;;;;;;1.70;1.60;;;;;;;17.50;40.73;98969.16;6913679;28;20244;-86
2023/11/08 09:36:36;;;;;;;2.10;1.70;;;;;;;18.05;39.69;98981.00;6936106;28;20243;-84
2023/11/08 09:39:59;;;;;;;1.67;1.57;;;;;;;17.15;40.54;98981.25;6936945;28;20226;-86
2023/11/08 09:43:21;;;;;;;3.30;1.73;;;;;;;15.81;43.42;98960.78;6939134;28;20725;-85
2023/11/08 09:46:43;;;;;;;1.63;1.53;;;;;;;16.23;43.26;98993.09;6942097;28;20204;-86
2023/11/08 09:50:08;;;;;;;2.60;1.70;;;;;;;16.37;42.17;98974.63;6938492;28;20225;-86
2023/11/08 09:53:30;;;;;;;3.53;1.53;;;;;;;16.87;40.74;98992.94;6913093;28;20668;-86
2023/11/08 09:56:53;;;;;;;2.70;1.60;;;;;;;17.53;40.21;98987.75;6915733;28;20349;-85
2023/11/08 10:00:15;;;;;;;3.03;1.77;;;;;;;17.79;39.61;98980.81;6915574;28;20316;-86
2023/11/08 10:03:38;;;;;;;2.43;1.40;;;;;;;17.51;40.66;98986.34;6940203;28;20345;-86
2023/11/08 10:07:00;;;;;;;4.23;1.50;;;;;;;17.34;40.47;98986.25;6935447;28;20207;-85
2023/11/08 10:10:22;;;;;;;2.30;1.50;;;;;;;16.43;41.22;98985.44;6933364;28;20613;-88
2023/11/08 10:13:48;;;;;;;1.90;1.40;;;;;;;17.08;41.52;98983.28;6940237;28;20248;-85
2023/11/08 10:17:10;;;;;;;1.67;1.50;;;;;;;17.20;41.21;98971.28;6940642;28;20231;-86
2023/11/08 10:20:34;;;;;;;2.27;1.47;;;;;;;17.66;38.68;98953.88;6931253;28;20325;-86
2023/11/08 10:23:57;;;;;;;2.37;1.37;;;;;;;17.72;38.89;98963.78;6920037;28;20571;-85
2023/11/08 10:27:18;;;;;;;1.70;1.60;;;;;;;16.78;40.17;98960.88;6932286;28;20207;-86
2023/11/08 10:30:41;;;;;;;1.50;1.40;;;;;;;16.32;41.25;98967.19;6932496;28;20276;-86
2023/11/08 10:34:04;;;;;;;1.30;1.30;;;;;;;16.59;41.00;98964.81;6943450;28;20214;-85
2023/11/08 10:37:26;;;;;;;1.37;1.37;;;;;;;16.98;41.04;98959.38;6945636;28;20245;-86
2023/11/08 10:40:47;;;;;;;2.27;1.70;;;;;;;16.01;42.45;98958.56;6941034;28;20319;-86
2023/11/08 10:44:11;;;;;;;1.20;1.20;;;;;;;16.12;41.77;98873.41;6945009;28;20300;-86
2023/11/08 10:47:35;;;;;;;1.20;1.10;;;;;;;16.35;41.89;98955.00;6945785;28;20724;-86
2023/11/08 10:51:00;;;;;;;1.50;1.40;;;;;;;16.57;40.81;98947.91;6946180;28;20347;-86
2023/11/08 10:54:22;;;;;;;2.10;1.27;;;;;;;16.05;41.08;98946.16;6945410;28;20215;-86
2023/11/08 10:57:53;;;;;;;2.57;1.50;;;;;;;15.97;42.12;98960.06;6949170;28;20294;-86
2023/11/08 11:01:15;;;;;;;1.50;1.40;;;;;;;15.94;41.94;98955.13;6937354;28;20360;-85
2023/11/08 11:04:38;;;;;;;2.27;1.53;;;;;;;15.80;41.73;98885.75;6945116;28;20728;-87
2023/11/08 11:08:01;;;;;;;2.37;1.53;;;;;;;15.89;42.41;98889.75;6945841;28;20257;-86
2023/11/08 11:11:23;;;;;;;1.50;1.40;;;;;;;16.70;41.66;98934.84;6946242;28;20581;-84
2023/11/08 11:14:46;;;;;;;2.60;1.40;;;;;;;16.80;41.12;98913.28;6944134;28;20646;-86
2023/11/08 11:18:11;;;;;;;3.17;1.60;;;;;;;16.69;41.84;98921.50;6928303;28;20255;-86
2023/11/08 11:21:40;;;;;;;2.00;1.63;;;;;;;16.90;41.20;98924.38;6918136;28;20230;-86
2023/11/08 11:25:03;;;;;;;1.33;1.23;;;;;;;18.20;39.47;98904.84;6935686;28;20431;-84
2023/11/08 11:28:51;;;;;;;2.13;1.83;;;;;;;18.58;39.87;98898.56;6933207;28;20708;-88
2023/11/08 11:32:33;;;;;;;249.23;116.43;;;;;;;18.98;40.16;98899.03;6934350;28;20200;-84
2023/11/08 11:35:55;;;;;;;2.83;1.80;;;;;;;18.68;39.57;98906.84;6934311;28;20207;-85
2023/11/08 11:39:19;;;;;;;2.17;1.40;;;;;;;18.59;38.09;98902.94;6936751;28;20592;-85
2023/11/08 11:42:42;;;;;;;1.10;1.10;;;;;;;17.42;39.51;98898.69;6935958;28;20321;-86
2023/11/08 11:46:03;;;;;;;5.63;1.60;;;;;;;16.78;41.06;98907.25;6927453;28;20295;-85
2023/11/08 11:49:25;;;;;;;1.23;1.13;;;;;;;16.90;40.82;98913.47;6923819;28;20235;-87
2023/11/08 11:52:49;;;;;;;1.60;1.30;;;;;;;16.91;40.76;98893.34;6917778;28;20275;-87
2023/11/08 11:56:12;;;;;;;3.13;1.53;;;;;;;17.16;40.36;98880.19;6919643;28;20228;-86
2023/11/08 11:59:33;;;;;;;1.60;1.50;;;;;;;17.15;40.70;98894.88;6935647;28;20352;-86
2023/11/08 12:02:55;;;;;;;1.70;1.50;;;;;;;16.75;41.15;98893.28;6943336;28;20600;-86
2023/11/08 12:06:17;;;;;;;1.50;1.40;;;;;;;17.03;39.84;98793.31;6935482;28;20217;-86
2023/11/08 12:09:39;;;;;;;1.40;1.30;;;;;;;17.21;41.06;98874.81;6919664;28;20718;-87
2023/11/08 12:13:02;;;;;;;1.37;1.37;;;;;;;17.19;40.15;98878.88;6943464;28;20236;-86
2023/11/08 12:16:24;;;;;;;1.50;1.40;;;;;;;17.26;40.54;98877.66;6935664;28;20361;-86
2023/11/08 12:19:46;;;;;;;1.20;1.20;;;;;;;17.21;40.56;98866.66;6943009;28;20238;-87
2023/11/08 12:23:08;;;;;;;2.03;1.60;;;;;;;17.08;41.08;98857.94;6932839;28;20299;-87
2023/11/08 12:26:29;;;;;;;2.13;1.37;;;;;;;17.11;41.49;98860.19;6930323;28;20229;-86
2023/11/08 12:29:52;;;;;;;1.40;1.30;;;;;;;17.71;40.38;98856.63;6934893;28;20335;-86
2023/11/08 12:33:16;;;;;;;1.10;1.10;;;;;;;17.49;39.96;98835.81;6945364;28;20221;-87
2023/11/08 12:36:38;;;;;;;1.93;1.30;;;;;;;17.41;41.10;98836.22;6951900;28;20272;-88
2023/11/08 12:40:18;;;;;;;1.50;1.40;;;;;;;16.27;41.87;98831.03;6960166;28;20226;-87
2023/11/08 12:43:40;;;;;;;1.77;1.67;;;;;;;16.16;41.83;98818.28;6953106;28;20234;-88
2023/11/08 12:47:06;;;;;;;1.27;1.10;;;;;;;17.18;40.19;98812.66;6956290;28;20217;-88
2023/11/08 12:50:28;;;;;;;1.30;1.20;;;;;;;17.62;40.09;98822.66;6959702;28;20323;-88
2023/11/08 12:53:49;;;;;;;2.83;2.40;;;;;;;17.41;39.79;98828.88;6957193;28;20259;-88
2023/11/08 12:57:24;;;;;;;4.60;1.40;;;;;;;17.26;40.05;98814.13;6957090;28;20208;-88
2023/11/08 13:00:46;;;;;;;1.10;1.10;;;;;;;17.55;40.56;98818.44;6953286;28;20234;-88
2023/11/08 13:04:12;;;;;;;4.40;1.30;;;;;;;17.22;40.00;98805.63;6960891;28;20230;-86
2023/11/08 13:07:35;;;;;;;1.57;1.47;;;;;;;17.18;39.49;98803.66;6956664;28;20277;-88
2023/11/08 13:10:58;;;;;;;1.43;1.40;;;;;;;17.12;40.72;98791.84;6964776;28;20253;-88
2023/11/08 13:14:19;;;;;;;1.53;1.43;;;;;;;17.37;40.79;98799.59;6965238;28;20292;-88
2023/11/08 13:17:41;;;;;;;1.90;1.70;;;;;;;17.50;39.93;98778.31;6956061;28;20207;-88
2023/11/08 13:21:04;;;;;;;2.03;1.60;;;;;;;17.38;40.75;98779.47;6956516;28;20641;-88
2023/11/08 13:24:26;;;;;;;1.70;1.60;;;;;;;17.82;39.77;98792.94;6938611;28;20268;-87
2023/11/08 13:27:50;;;;;;;1.53;1.43;;;;;;;17.67;39.75;98791.91;6929044;28;20255;-88
2023/11/08 13:31:13;;;;;;;2.03;1.83;;;;;;;17.67;39.19;98779.13;6933988;28;20226;-88
2023/11/08 13:34:34;;;;;;;1.83;1.70;;;;;;;17.73;39.19;98786.28;6932742;28;20209;-88
2023/11/08 13:37:57;;;;;;;1.97;1.83;;;;;;;17.42;38.67;98737.03;6942102;28;20707;-88
2023/11/08 13:41:19;;;;;;;2.50;2.30;;;;;;;16.86;39.76;98791.66;6938988;28;20229;-87
2023/11/08 13:44:40;;;;;;;1.53;1.43;;;;;;;16.28;40.82;98725.75;6934606;28;20247;-87
2023/11/08 13:48:02;;;;;;;1.90;1.70;;;;;;;16.69;40.57;98771.75;6930433;28;20235;-87
2023/11/08 13:51:24;;;;;;;3.30;1.60;;;;;;;16.01;41.52;98744.53;6939339;28;20250;-87
2023/11/08 13:54:47;;;;;;;2.33;1.90;;;;;;;16.17;41.41;98786.47;6928909;28;20550;-87
2023/11/08 13:58:09;;;;;;;3.67;3.37;;;;;;;16.51;40.73;98780.94;6941196;28;20595;-88
2023/11/08 14:01:30;;;;;;;1.53;1.43;;;;;;;15.95;40.56;98695.72;6932970;28;20210;-87
2023/11/08 14:04:52;;;;;;;1.50;1.40;;;;;;;16.28;40.91;98782.91;6925029;28;20649;-87
2023/11/08 14:08:13;;;;;;;1.30;1.30;;;;;;;16.69;40.10;98774.47;6939716;28;20232;-88
2023/11/08 14:11:36;;;;;;;1.60;1.50;;;;;;;16.74;40.38;98759.03;6944027;28;20227;-88
2023/11/08 14:14:58;;;;;;;1.77;1.67;;;;;;;16.65;40.23;98707.97;6946070;28;20242;-88
2023/11/08 14:18:20;;;;;;;2.43;2.13;;;;;;;16.65;39.56;98645.34;6939720;28;20263;-88
2023/11/08 14:21:41;;;;;;;1.40;1.30;;;;;;;16.60;39.48;98642.53;6935126;28;20294;-87
2023/11/08 14:25:04;;;;;;;2.33;1.50;;;;;;;17.73;38.91;98769.09;6945899;28;20220;-88
2023/11/08 14:28:27;;;;;;;2.23;1.50;;;;;;;17.98;37.84;98759.34;6930244;28;20232;-88
2023/11/08 14:31:48;;;;;;;3.77;1.90;;;;;;;17.50;38.69;98759.22;6926757;28;20715;-88
2023/11/08 14:35:10;;;;;;;2.07;1.57;;;;;;;16.76;39.27;98709.78;6928622;28;20724;-87
2023/11/08 14:38:32;;;;;;;1.50;1.40;;;;;;;17.22;38.33;98706.72;6934580;28;20229;-88
2023/11/08 14:41:53;;;;;;;2.93;2.03;;;;;;;17.41;39.10;98740.84;6942911;28;20232;-88
2023/11/08 14:45:18;;;;;;;2.43;1.40;;;;;;;17.57;38.13;98743.50;6931293;28;20235;-88
2023/11/08 14:48:40;;;;;;;1.60;1.50;;;;;;;17.48;38.64;98747.75;6929663;28;20291;-88
2023/11/08 14:52:02;;;;;;;2.53;1.80;;;;;;;17.74;38.47;98738.03;6941844;28;20197;-87
2023/11/08 14:55:24;;;;;;;1.57;1.40;;;;;;;17.60;38.73;98734.84;6945797;28;20271;-87
2023/11/08 14:58:45;;;;;;;1.43;1.20;;;;;;;16.42;38.82;98624.56;6923491;28;20354;-88
2023/11/08 15:02:08;;;;;;;1.47;1.37;;;;;;;16.75;39.70;98748.97;6918536;28;20884;-87
2023/11/08 15:05:30;;;;;;;1.73;1.60;;;;;;;16.40;40.68;98742.88;6918420;28;20288;-87
2023/11/08 15:08:51;;;;;;;1.40;1.30;;;;;;;16.30;40.38;98753.53;6941208;28;20268;-87
2023/11/08 15:12:13;;;;;;;2.93;1.30;;;;;;;16.76;39.96;98743.28;6945346;28;20296;-86
2023/11/08 15:15:35;;;;;;;2.20;1.60;;;;;;;15.96;40.86;98686.50;6944868;28;20815;-87
2023/11/08 15:18:58;;;;;;;3.47;1.63;;;;;;;15.99;41.18;98743.13;6945518;28;20274;-87
2023/11/08 15:22:20;;;;;;;2.83;1.70;;;;;;;15.63;41.29;98659.19;6937652;28;20231;-86
2023/11/08 15:25:42;;;;;;;1.73;1.60;;;;;;;16.19;41.05;98738.94;6924510;28;20296;-86
2023/11/08 15:29:04;;;;;;;1.60;1.50;;;;;;;16.31;40.74;98734.25;6917593;28;20315;-87
2023/11/08 15:32:26;;;;;;;3.40;1.90;;;;;;;15.87;42.13;98726.03;6937275;28;20291;-87
2023/11/08 15:35:49;;;;;;;1.90;1.80;;;;;;;15.89;41.75;98645.88;6944826;28;20230;-88
2023/11/08 15:39:11;;;;;;;1.50;1.40;;;;;;;16.44;40.92;98727.72;6934956;28;20350;-88
2023/11/08 15:42:33;;;;;;;1.67;1.57;;;;;;;15.62;41.42;98624.94;6917634;28;20232;-88
2023/11/08 15:45:55;;;;;;;2.00;1.80;;;;;;;16.19;41.35;98721.75;6917604;28;20213;-88
2023/11/08 15:49:17;;;;;;;6.23;4.90;;;;;;;16.60;40.59;98718.75;6918083;28;20259;-87
2023/11/08 15:52:40;;;;;;;3.87;3.40;;;;;;;16.16;40.30;98637.94;6927383;28;20714;-88
2023/11/08 15:56:03;;;;;;;3.37;2.00;;;;;;;16.57;40.48;98706.47;6945836;28;20347;-87
2023/11/08 15:59:25;;;;;;;8.17;3.93;;;;;;;16.31;41.92;98693.44;6951296;28;20821;-86
2023/11/08 16:02:46;;;;;;;24.87;8.77;;;;;;;15.91;44.77;98681.78;6946614;28;20223;-85
2023/11/08 16:06:16;;;;;;;30.53;12.77;;;;;;;15.44;46.81;98701.16;6947392;28;20220;-84
2023/11/08 16:09:40;;;;;;;12.50;6.30;;;;;;;15.76;45.03;98699.69;6940217;28;20288;-85
2023/11/08 16:13:04;;;;;;;5.87;4.20;;;;;;;15.48;45.62;98677.88;6943725;28;20219;-86
2023/11/08 16:16:25;;;;;;;8.67;4.27;;;;;;;15.12;46.57;98695.28;6936961;28;20209;-86
2023/11/08 16:19:47;;;;;;;7.70;4.43;;;;;;;14.73;47.22;98679.66;6924702;28;20344;-86
2023/11/08 16:23:08;;;;;;;6.70;3.40;;;;;;;14.58;47.56;98662.19;6921259;28;20232;-86
2023/11/08 16:26:32;;;;;;;6.70;3.70;;;;;;;14.59;48.46;98688.25;6939373;28;20692;-86
2023/11/08 16:29:54;;;;;;;5.13;3.03;;;;;;;14.47;48.49;98663.00;6943385;28;20578;-86
2023/11/08 16:33:15;;;;;;;4.57;3.63;;;;;;;13.81;48.61;98586.41;6944323;28;20215;-87
2023/11/08 16:36:37;;;;;;;4.60;3.73;;;;;;;14.41;48.61;98669.34;6935371;28;20301;-85
2023/11/08 16:39:58;;;;;;;5.03;3.50;;;;;;;14.34;47.24;98660.50;6931727;28;20315;-85
2023/11/08 16:43:21;;;;;;;4.17;2.90;;;;;;;14.20;47.75;98665.28;6947972;28;20325;-85
2023/11/08 16:46:43;;;;;;;7.93;4.77;;;;;;;14.13;48.15;98667.22;6938222;28;20206;-86
2023/11/08 16:50:05;;;;;;;6.13;3.87;;;;;;;14.01;48.57;98660.94;6932584;28;20215;-86
2023/11/08 16:53:27;;;;;;;3.93;3.40;;;;;;;13.24;50.60;98679.00;6928093;28;20703;-85
2023/11/08 16:56:48;;;;;;;5.13;2.93;;;;;;;13.44;49.45;98666.06;6969547;28;20214;-86
2023/11/08 17:00:14;;;;;;;5.27;3.40;;;;;;;13.38;48.22;98583.03;6935262;28;20228;-87
2023/11/08 17:03:36;;;;;;;9.77;6.47;;;;;;;13.65;49.00;98669.16;6923683;28;20219;-87
2023/11/08 17:06:58;;;;;;;11.73;7.40;;;;;;;13.49;49.29;98672.47;6941074;28;20202;-85
2023/11/08 17:10:20;;;;;;;10.40;6.90;;;;;;;12.75;49.49;98578.97;6928926;28;20313;-87
2023/11/08 17:26:14;;;;;;;7.03;4.50;;;;;;;12.64;51.25;98685.19;6933728;28;20229;-87
2023/11/08 17:29:57;;;;;;;7.03;4.73;;;;;;;12.16;52.71;98676.00;6937456;28;20754;-86
2023/11/08 17:33:19;;;;;;;6.80;3.80;;;;;;;11.89;53.44;98669.09;6871981;28;20242;-85
2023/11/08 17:36:40;;;;;;;3.73;3.23;;;;;;;12.06;52.23;98643.22;6914848;28;20231;-87
2023/11/08 17:40:04;;;;;;;3.53;2.50;;;;;;;12.14;52.17;98669.97;6921833;28;20253;-87
2023/11/08 17:43:26;;;;;;;2.73;2.53;;;;;;;11.87;53.12;98677.41;6913796;28;20273;-87
2023/11/08 17:46:48;;;;;;;3.90;2.50;;;;;;;11.94;52.69;98672.81;6931481;28;20281;-87
2023/11/08 17:50:10;;;;;;;4.17;3.10;;;;;;;12.08;52.14;98654.63;6931885;28;20309;-86